Airfield :
LOGIN :

Register | Disclaimer

   EN    FR    IT 

 










Legend :    VFR   Marginal VFR   IFR   Intensive IFR   Very Intensive IFR
Visi :
Ceiling :
>= 8 km
>= 3000ft
5 to 8 km
1000 to 3000 ft
1500m to 5 km
500 to 1000 ft
800 to 1500m
200 to 500 ft
< 800m
< 200 ft
Symbols :   Thunderstorms  Fog  Heavy snow  Heavy precipitations  Wind > 20 kt
SIGMETs :     Misc.  Thunderstorms  Icing  Turbulence  Mountain Waves  Volcanic Ashes






- Airport Elevation : 183 ft
- IATA code : HAJ


EDDV - Hanover/Langenhagen Int.

CURRENT METAR :
  • 171920Z VRB01KT 9999 FEW028 FEW030CB 11/09 Q1005 NOSIG

EXPIRED METARs :
  • 171850Z VRB02KT 9999 FEW028 FEW030CB 11/09 Q1005 NOSIG
  • 171820Z VRB01KT 9999 FEW028 FEW030CB 12/09 Q1004 NOSIG
  • 171750Z 24004KT 180V270 9999 FEW033CB 12/09 Q1004 NOSIG
  • 171720Z 27003KT 240V310 9999 FEW033CB 13/09 Q1004 NOSIG
  • 171650Z 27005KT 250V310 9999 -SHRA SCT033CB 12/09 Q1003 TEMPO SHRA

TAF TAF EDDV
Valid from the 17 at 18:00 until the 18 at 18:00 UTC


171700Z 1718/1818 28005KT 9999 BKN025
PROB30
TEMPO 1722/1805 3000 BR BKN004
PROB30
TEMPO 1805/1807 BKN008
PROB30
TEMPO 1810/1816 SHRA BKN025TCU



MET'MAP, your aeronautical weather chart ! - Copyright ORBIFLY December 2007 - Disclaimer

ORBIFLY MET'MAP TEAM :

Programming & Development : Alexandra Zaïnal
Concept & original design : Baudouin d'Aumeries
Assistance for programming : Marc-Olivier Méhu
Technical & hardware support : Manuel Goepfert

Contact : metmap@orbifly.com




SOURCES & CREDITS :

   NOAA